sensor_id;sensor_type;location;lat;lon;timestamp;temperature;humidity
1015;DHT22;8170;48.118;11.628;2022-08-20T00:01:00;17.60;99.90
1015;DHT22;8170;48.118;11.628;2022-08-20T00:02:04;17.60;99.90
1015;DHT22;8170;48.118;11.628;2022-08-20T00:03:12;17.60;99.90
1015;DHT22;8170;48.118;11.628;2022-08-20T00:04:17;17.60;99.90
1015;DHT22;8170;48.118;11.628;2022-08-20T00:05:22;17.60;99.90
1015;DHT22;8170;48.118;11.628;2022-08-20T00:06:26;17.60;99.90
1015;DHT22;8170;48.118;11.628;2022-08-20T00:07:28;17.60;99.90
1015;DHT22;8170;48.118;11.628;2022-08-20T00:08:31;17.60;99.90
1015;DHT22;8170;48.118;11.628;2022-08-20T00:09:34;17.60;99.90
1015;DHT22;8170;48.118;11.628;2022-08-20T00:10:40;17.60;99.90
1015;DHT22;8170;48.118;11.628;2022-08-20T00:11:45;17.60;99.90
1015;DHT22;8170;48.118;11.628;2022-08-20T00:12:49;17.60;99.90
1015;DHT22;8170;48.118;11.628;2022-08-20T00:13:56;17.60;99.90
1015;DHT22;8170;48.118;11.628;2022-08-20T00:14:59;17.70;99.90
1015;DHT22;8170;48.118;11.628;2022-08-20T00:16:02;17.70;99.90
1015;DHT22;8170;48.118;11.628;2022-08-20T00:17:05;17.70;99.90
1015;DHT22;8170;48.118;11.628;2022-08-20T00:18:08;17.70;99.90
1015;DHT22;8170;48.118;11.628;2022-08-20T00:19:13;17.70;99.90
1015;DHT22;8170;48.118;11.628;2022-08-20T00:20:19;17.70;99.90
1015;DHT22;8170;48.118;11.628;2022-08-20T00:21:21;17.70;99.90
1015;DHT22;8170;48.118;11.628;2022-08-20T00:22:26;17.70;99.90
1015;DHT22;8170;48.118;11.628;2022-08-20T00:23:28;17.70;99.90
1015;DHT22;8170;48.118;11.628;2022-08-20T00:24:32;17.70;99.90
1015;DHT22;8170;48.118;11.628;2022-08-20T00:25:35;17.70;99.90
1015;DHT22;8170;48.118;11.628;2022-08-20T00:26:38;17.70;99.90
1015;DHT22;8170;48.118;11.628;2022-08-20T00:27:53;17.70;99.90
1015;DHT22;8170;48.118;11.628;2022-08-20T00:28:57;17.70;99.90
1015;DHT22;8170;48.118;11.628;2022-08-20T00:29:59;17.70;99.90
1015;DHT22;8170;48.118;11.628;2022-08-20T00:31:04;17.70;99.90
1015;DHT22;8170;48.118;11.628;2022-08-20T00:32:07;17.70;99.90
1015;DHT22;8170;48.118;11.628;2022-08-20T00:33:12;17.70;99.90
1015;DHT22;8170;48.118;11.628;2022-08-20T00:34:15;17.70;99.90
1015;DHT22;8170;48.118;11.628;2022-08-20T00:35:23;17.70;99.90
1015;DHT22;8170;48.118;11.628;2022-08-20T00:36:26;17.70;99.90
1015;DHT22;8170;48.118;11.628;2022-08-20T00:37:33;17.70;99.90
1015;DHT22;8170;48.118;11.628;2022-08-20T00:38:37;17.70;99.90
1015;DHT22;8170;48.118;11.628;2022-08-20T00:39:40;17.70;99.90
1015;DHT22;8170;48.118;11.628;2022-08-20T00:40:45;17.70;99.90
1015;DHT22;8170;48.118;11.628;2022-08-20T00:41:49;17.60;99.90
1015;DHT22;8170;48.118;11.628;2022-08-20T00:42:54;17.70;99.90
1015;DHT22;8170;48.118;11.628;2022-08-20T00:44:08;17.70;99.90
1015;DHT22;8170;48.118;11.628;2022-08-20T00:45:11;17.70;99.90
1015;DHT22;8170;48.118;11.628;2022-08-20T00:46:23;17.70;99.90
1015;DHT22;8170;48.118;11.628;2022-08-20T00:47:33;17.70;99.90
1015;DHT22;8170;48.118;11.628;2022-08-20T00:48:40;17.70;99.90
1015;DHT22;8170;48.118;11.628;2022-08-20T00:49:42;17.70;99.90
1015;DHT22;8170;48.118;11.628;2022-08-20T00:50:47;17.70;99.90
1015;DHT22;8170;48.118;11.628;2022-08-20T00:51:52;17.70;99.90
1015;DHT22;8170;48.118;11.628;2022-08-20T00:52:56;17.70;99.90
1015;DHT22;8170;48.118;11.628;2022-08-20T00:54:03;17.70;99.90
1015;DHT22;8170;48.118;11.628;2022-08-20T00:55:08;17.60;99.90
1015;DHT22;8170;48.118;11.628;2022-08-20T00:56:11;17.60;99.90
1015;DHT22;8170;48.118;11.628;2022-08-20T00:57:22;17.60;99.90
1015;DHT22;8170;48.118;11.628;2022-08-20T00:58:25;17.60;99.90
1015;DHT22;8170;48.118;11.628;2022-08-20T00:59:31;17.60;99.90
1015;DHT22;8170;48.118;11.628;2022-08-20T01:00:37;17.60;99.90
1015;DHT22;8170;48.118;11.628;2022-08-20T01:01:41;17.70;99.90
1015;DHT22;8170;48.118;11.628;2022-08-20T01:02:57;17.60;99.90
1015;DHT22;8170;48.118;11.628;2022-08-20T01:04:01;17.70;99.90
1015;DHT22;8170;48.118;11.628;2022-08-20T01:05:05;17.70;99.90
1015;DHT22;8170;48.118;11.628;2022-08-20T01:06:11;17.70;99.90
1015;DHT22;8170;48.118;11.628;2022-08-20T01:07:13;17.80;99.90
1015;DHT22;8170;48.118;11.628;2022-08-20T01:08:18;17.70;99.90
1015;DHT22;8170;48.118;11.628;2022-08-20T01:09:21;17.70;99.90
1015;DHT22;8170;48.118;11.628;2022-08-20T01:10:46;17.70;99.90
1015;DHT22;8170;48.118;11.628;2022-08-20T01:11:50;17.70;99.90
1015;DHT22;8170;48.118;11.628;2022-08-20T01:12:55;17.70;99.90
1015;DHT22;8170;48.118;11.628;2022-08-20T01:14:01;17.70;99.90
1015;DHT22;8170;48.118;11.628;2022-08-20T01:15:18;17.70;99.90
1015;DHT22;8170;48.118;11.628;2022-08-20T01:16:32;17.60;99.90
1015;DHT22;8170;48.118;11.628;2022-08-20T01:17:44;17.60;99.90
1015;DHT22;8170;48.118;11.628;2022-08-20T01:18:48;17.60;99.90
1015;DHT22;8170;48.118;11.628;2022-08-20T01:19:54;17.60;99.90
1015;DHT22;8170;48.118;11.628;2022-08-20T01:21:00;17.60;99.90
1015;DHT22;8170;48.118;11.628;2022-08-20T01:22:06;17.60;99.90
1015;DHT22;8170;48.118;11.628;2022-08-20T01:23:34;17.60;99.90
1015;DHT22;8170;48.118;11.628;2022-08-20T01:24:39;17.60;99.90
1015;DHT22;8170;48.118;11.628;2022-08-20T01:25:48;17.60;99.90
1015;DHT22;8170;48.118;11.628;2022-08-20T01:26:51;17.60;99.90
1015;DHT22;8170;48.118;11.628;2022-08-20T01:27:55;17.60;99.90
1015;DHT22;8170;48.118;11.628;2022-08-20T01:29:02;17.60;99.90
1015;DHT22;8170;48.118;11.628;2022-08-20T01:30:06;17.60;99.90
1015;DHT22;8170;48.118;11.628;2022-08-20T01:31:12;17.60;99.90
1015;DHT22;8170;48.118;11.628;2022-08-20T01:32:18;17.60;99.90
1015;DHT22;8170;48.118;11.628;2022-08-20T01:33:21;17.60;99.90
1015;DHT22;8170;48.118;11.628;2022-08-20T01:34:24;17.60;99.90
1015;DHT22;8170;48.118;11.628;2022-08-20T01:35:27;17.60;99.90
1015;DHT22;8170;48.118;11.628;2022-08-20T01:36:35;17.50;99.90
1015;DHT22;8170;48.118;11.628;2022-08-20T01:37:38;17.50;99.90
1015;DHT22;8170;48.118;11.628;2022-08-20T01:38:41;17.50;99.90
1015;DHT22;8170;48.118;11.628;2022-08-20T01:39:55;17.50;99.90
1015;DHT22;8170;48.118;11.628;2022-08-20T01:42:35;17.50;99.90
1015;DHT22;8170;48.118;11.628;2022-08-20T01:43:58;17.50;99.90
1015;DHT22;8170;48.118;11.628;2022-08-20T01:45:03;17.50;99.90
1015;DHT22;8170;48.118;11.628;2022-08-20T01:46:06;17.50;99.90
1015;DHT22;8170;48.118;11.628;2022-08-20T01:47:14;17.50;99.90
1015;DHT22;8170;48.118;11.628;2022-08-20T01:48:17;17.50;99.90
1015;DHT22;8170;48.118;11.628;2022-08-20T01:49:23;17.50;99.90
1015;DHT22;8170;48.118;11.628;2022-08-20T01:50:28;17.50;99.90
1015;DHT22;8170;48.118;11.628;2022-08-20T01:51:34;17.50;99.90
1015;DHT22;8170;48.118;11.628;2022-08-20T01:52:47;17.50;99.90
1015;DHT22;8170;48.118;11.628;2022-08-20T01:53:56;17.50;99.90
1015;DHT22;8170;48.118;11.628;2022-08-20T01:54:58;17.50;99.90
1015;DHT22;8170;48.118;11.628;2022-08-20T01:56:05;17.50;99.90
1015;DHT22;8170;48.118;11.628;2022-08-20T01:57:12;17.50;99.90
1015;DHT22;8170;48.118;11.628;2022-08-20T01:58:16;17.50;99.90
1015;DHT22;8170;48.118;11.628;2022-08-20T01:59:18;17.50;99.90
1015;DHT22;8170;48.118;11.628;2022-08-20T02:00:22;17.40;99.90
1015;DHT22;8170;48.118;11.628;2022-08-20T02:01:28;17.50;99.90
1015;DHT22;8170;48.118;11.628;2022-08-20T02:02:47;17.50;99.90
1015;DHT22;8170;48.118;11.628;2022-08-20T02:03:50;17.50;99.90
1015;DHT22;8170;48.118;11.628;2022-08-20T02:04:54;17.50;99.90
1015;DHT22;8170;48.118;11.628;2022-08-20T02:05:59;17.50;99.90
1015;DHT22;8170;48.118;11.628;2022-08-20T02:07:05;17.50;99.90
1015;DHT22;8170;48.118;11.628;2022-08-20T02:08:08;17.50;99.90
1015;DHT22;8170;48.118;11.628;2022-08-20T02:09:10;17.50;99.90
1015;DHT22;8170;48.118;11.628;2022-08-20T02:10:17;17.50;99.90
1015;DHT22;8170;48.118;11.628;2022-08-20T02:11:21;17.50;99.90
1015;DHT22;8170;48.118;11.628;2022-08-20T02:12:25;17.50;99.90
1015;DHT22;8170;48.118;11.628;2022-08-20T02:13:27;17.40;99.90
1015;DHT22;8170;48.118;11.628;2022-08-20T02:14:31;17.40;99.90
1015;DHT22;8170;48.118;11.628;2022-08-20T02:15:34;17.40;99.90
1015;DHT22;8170;48.118;11.628;2022-08-20T02:16:42;17.30;99.90
1015;DHT22;8170;48.118;11.628;2022-08-20T02:17:56;17.40;99.90
1015;DHT22;8170;48.118;11.628;2022-08-20T02:19:02;17.40;99.90
1015;DHT22;8170;48.118;11.628;2022-08-20T02:20:12;17.40;99.90
1015;DHT22;8170;48.118;11.628;2022-08-20T02:21:16;17.30;99.90
1015;DHT22;8170;48.118;11.628;2022-08-20T02:22:38;17.30;99.90
1015;DHT22;8170;48.118;11.628;2022-08-20T02:24:09;17.30;99.90
1015;DHT22;8170;48.118;11.628;2022-08-20T02:25:13;17.30;99.90
1015;DHT22;8170;48.118;11.628;2022-08-20T02:26:16;17.30;99.90
1015;DHT22;8170;48.118;11.628;2022-08-20T02:27:20;17.30;99.90
1015;DHT22;8170;48.118;11.628;2022-08-20T02:28:25;17.30;99.90
1015;DHT22;8170;48.118;11.628;2022-08-20T02:29:28;17.30;99.90
1015;DHT22;8170;48.118;11.628;2022-08-20T02:30:33;17.30;99.90
1015;DHT22;8170;48.118;11.628;2022-08-20T02:31:38;17.30;99.90
1015;DHT22;8170;48.118;11.628;2022-08-20T02:33:02;17.30;99.90
1015;DHT22;8170;48.118;11.628;2022-08-20T02:34:07;17.30;99.90
1015;DHT22;8170;48.118;11.628;2022-08-20T02:35:24;17.30;99.90
1015;DHT22;8170;48.118;11.628;2022-08-20T02:36:27;17.30;99.90
1015;DHT22;8170;48.118;11.628;2022-08-20T02:37:30;17.30;99.90
1015;DHT22;8170;48.118;11.628;2022-08-20T02:38:33;17.40;99.90
1015;DHT22;8170;48.118;11.628;2022-08-20T02:39:36;17.40;99.90
1015;DHT22;8170;48.118;11.628;2022-08-20T02:40:39;17.40;99.90
1015;DHT22;8170;48.118;11.628;2022-08-20T02:41:42;17.40;99.90
1015;DHT22;8170;48.118;11.628;2022-08-20T02:42:44;17.40;99.90
1015;DHT22;8170;48.118;11.628;2022-08-20T02:43:49;17.40;99.90
1015;DHT22;8170;48.118;11.628;2022-08-20T02:44:53;17.40;99.90
1015;DHT22;8170;48.118;11.628;2022-08-20T02:45:55;17.40;99.90
1015;DHT22;8170;48.118;11.628;2022-08-20T02:46:58;17.40;99.90
1015;DHT22;8170;48.118;11.628;2022-08-20T02:48:02;17.40;99.90
1015;DHT22;8170;48.118;11.628;2022-08-20T02:49:06;17.30;99.90
1015;DHT22;8170;48.118;11.628;2022-08-20T02:50:11;17.30;99.90
1015;DHT22;8170;48.118;11.628;2022-08-20T02:51:14;17.30;99.90
1015;DHT22;8170;48.118;11.628;2022-08-20T02:52:31;17.30;99.90
1015;DHT22;8170;48.118;11.628;2022-08-20T02:53:35;17.30;99.90
1015;DHT22;8170;48.118;11.628;2022-08-20T02:54:39;17.30;99.90
1015;DHT22;8170;48.118;11.628;2022-08-20T02:55:41;17.30;99.90
1015;DHT22;8170;48.118;11.628;2022-08-20T02:56:45;17.30;99.90
1015;DHT22;8170;48.118;11.628;2022-08-20T02:57:47;17.40;99.90
1015;DHT22;8170;48.118;11.628;2022-08-20T02:58:55;17.40;99.90
1015;DHT22;8170;48.118;11.628;2022-08-20T02:59:58;17.30;99.90
1015;DHT22;8170;48.118;11.628;2022-08-20T03:01:02;17.30;99.90
1015;DHT22;8170;48.118;11.628;2022-08-20T03:02:05;17.30;99.90
1015;DHT22;8170;48.118;11.628;2022-08-20T03:03:08;17.30;99.90
1015;DHT22;8170;48.118;11.628;2022-08-20T03:04:12;17.30;99.90
1015;DHT22;8170;48.118;11.628;2022-08-20T03:05:14;17.30;99.90
1015;DHT22;8170;48.118;11.628;2022-08-20T03:06:17;17.30;99.90
1015;DHT22;8170;48.118;11.628;2022-08-20T03:07:22;17.30;99.90
1015;DHT22;8170;48.118;11.628;2022-08-20T03:08:26;17.30;99.90
1015;DHT22;8170;48.118;11.628;2022-08-20T03:09:30;17.30;99.90
1015;DHT22;8170;48.118;11.628;2022-08-20T03:10:33;17.30;99.90
1015;DHT22;8170;48.118;11.628;2022-08-20T03:11:37;17.30;99.90
1015;DHT22;8170;48.118;11.628;2022-08-20T03:12:41;17.30;99.90
1015;DHT22;8170;48.118;11.628;2022-08-20T03:13:43;17.30;99.90
1015;DHT22;8170;48.118;11.628;2022-08-20T03:14:47;17.30;99.90
1015;DHT22;8170;48.118;11.628;2022-08-20T03:15:51;17.30;99.90
1015;DHT22;8170;48.118;11.628;2022-08-20T03:16:59;17.40;99.90
1015;DHT22;8170;48.118;11.628;2022-08-20T03:18:02;17.30;99.90
1015;DHT22;8170;48.118;11.628;2022-08-20T03:19:05;17.30;99.90
1015;DHT22;8170;48.118;11.628;2022-08-20T03:20:10;17.30;99.90
1015;DHT22;8170;48.118;11.628;2022-08-20T03:21:13;17.30;99.90
1015;DHT22;8170;48.118;11.628;2022-08-20T03:22:16;17.30;99.90
1015;DHT22;8170;48.118;11.628;2022-08-20T03:23:20;17.30;99.90
1015;DHT22;8170;48.118;11.628;2022-08-20T03:24:23;17.30;99.90
1015;DHT22;8170;48.118;11.628;2022-08-20T03:25:25;17.30;99.90
1015;DHT22;8170;48.118;11.628;2022-08-20T03:26:29;17.30;99.90
1015;DHT22;8170;48.118;11.628;2022-08-20T03:27:31;17.30;99.90
1015;DHT22;8170;48.118;11.628;2022-08-20T03:28:37;17.30;99.90
1015;DHT22;8170;48.118;11.628;2022-08-20T03:29:40;17.30;99.90
1015;DHT22;8170;48.118;11.628;2022-08-20T03:30:44;17.40;99.90
1015;DHT22;8170;48.118;11.628;2022-08-20T03:31:47;17.30;99.90
1015;DHT22;8170;48.118;11.628;2022-08-20T03:32:50;17.40;99.90
1015;DHT22;8170;48.118;11.628;2022-08-20T03:33:53;17.40;99.90
1015;DHT22;8170;48.118;11.628;2022-08-20T03:34:56;17.40;99.90
1015;DHT22;8170;48.118;11.628;2022-08-20T03:35:58;17.30;99.90
1015;DHT22;8170;48.118;11.628;2022-08-20T03:37:01;17.30;99.90
1015;DHT22;8170;48.118;11.628;2022-08-20T03:38:09;17.30;99.90
1015;DHT22;8170;48.118;11.628;2022-08-20T03:39:12;17.20;99.90
1015;DHT22;8170;48.118;11.628;2022-08-20T03:40:19;17.30;99.90
1015;DHT22;8170;48.118;11.628;2022-08-20T03:41:22;17.20;99.90
1015;DHT22;8170;48.118;11.628;2022-08-20T03:42:25;17.20;99.90
1015;DHT22;8170;48.118;11.628;2022-08-20T03:43:28;17.20;99.90
1015;DHT22;8170;48.118;11.628;2022-08-20T03:44:31;17.30;99.90
1015;DHT22;8170;48.118;11.628;2022-08-20T03:45:34;17.30;99.90
1015;DHT22;8170;48.118;11.628;2022-08-20T03:46:39;17.30;99.90
1015;DHT22;8170;48.118;11.628;2022-08-20T03:47:41;17.30;99.90
1015;DHT22;8170;48.118;11.628;2022-08-20T03:48:44;17.20;99.90
1015;DHT22;8170;48.118;11.628;2022-08-20T03:49:49;17.20;99.90
1015;DHT22;8170;48.118;11.628;2022-08-20T03:50:52;17.20;99.90
1015;DHT22;8170;48.118;11.628;2022-08-20T03:51:54;17.30;99.90
1015;DHT22;8170;48.118;11.628;2022-08-20T03:52:59;17.30;99.90
1015;DHT22;8170;48.118;11.628;2022-08-20T03:54:02;17.30;99.90
1015;DHT22;8170;48.118;11.628;2022-08-20T03:55:07;17.30;99.90
1015;DHT22;8170;48.118;11.628;2022-08-20T03:56:09;17.30;99.90
1015;DHT22;8170;48.118;11.628;2022-08-20T03:57:14;17.30;99.90
1015;DHT22;8170;48.118;11.628;2022-08-20T03:58:16;17.20;99.90
1015;DHT22;8170;48.118;11.628;2022-08-20T03:59:20;17.20;99.90
1015;DHT22;8170;48.118;11.628;2022-08-20T04:00:25;17.20;99.90
1015;DHT22;8170;48.118;11.628;2022-08-20T04:01:28;17.20;99.90
1015;DHT22;8170;48.118;11.628;2022-08-20T04:02:48;17.20;99.90
1015;DHT22;8170;48.118;11.628;2022-08-20T04:03:50;17.10;99.90
1015;DHT22;8170;48.118;11.628;2022-08-20T04:04:56;17.20;99.90
1015;DHT22;8170;48.118;11.628;2022-08-20T04:05:58;17.20;99.90
1015;DHT22;8170;48.118;11.628;2022-08-20T04:07:08;17.10;99.90
1015;DHT22;8170;48.118;11.628;2022-08-20T04:08:13;17.10;99.90
1015;DHT22;8170;48.118;11.628;2022-08-20T04:09:17;17.10;99.90
1015;DHT22;8170;48.118;11.628;2022-08-20T04:10:19;17.10;99.90
1015;DHT22;8170;48.118;11.628;2022-08-20T04:11:22;17.20;99.90
1015;DHT22;8170;48.118;11.628;2022-08-20T04:12:25;17.20;99.90
1015;DHT22;8170;48.118;11.628;2022-08-20T04:13:29;17.20;99.90
1015;DHT22;8170;48.118;11.628;2022-08-20T04:14:31;17.20;99.90
1015;DHT22;8170;48.118;11.628;2022-08-20T04:15:37;17.20;99.90
1015;DHT22;8170;48.118;11.628;2022-08-20T04:16:39;17.20;99.90
1015;DHT22;8170;48.118;11.628;2022-08-20T04:17:45;17.20;99.90
1015;DHT22;8170;48.118;11.628;2022-08-20T04:18:49;17.20;99.90
1015;DHT22;8170;48.118;11.628;2022-08-20T04:20:04;17.20;99.90
1015;DHT22;8170;48.118;11.628;2022-08-20T04:21:06;17.20;99.90
1015;DHT22;8170;48.118;11.628;2022-08-20T04:22:10;17.20;99.90
1015;DHT22;8170;48.118;11.628;2022-08-20T04:23:14;17.30;99.90
1015;DHT22;8170;48.118;11.628;2022-08-20T04:24:17;17.30;99.90
1015;DHT22;8170;48.118;11.628;2022-08-20T04:25:33;17.30;99.90
1015;DHT22;8170;48.118;11.628;2022-08-20T04:26:37;17.30;99.90
1015;DHT22;8170;48.118;11.628;2022-08-20T04:27:39;17.30;99.90
1015;DHT22;8170;48.118;11.628;2022-08-20T04:28:42;17.30;99.90
1015;DHT22;8170;48.118;11.628;2022-08-20T04:29:45;17.20;99.90
1015;DHT22;8170;48.118;11.628;2022-08-20T04:30:48;17.20;99.90
1015;DHT22;8170;48.118;11.628;2022-08-20T04:31:53;17.20;99.90
1015;DHT22;8170;48.118;11.628;2022-08-20T04:32:56;17.20;99.90
1015;DHT22;8170;48.118;11.628;2022-08-20T04:34:03;17.20;99.90
1015;DHT22;8170;48.118;11.628;2022-08-20T04:35:11;17.20;99.90
1015;DHT22;8170;48.118;11.628;2022-08-20T04:36:15;17.20;99.90
1015;DHT22;8170;48.118;11.628;2022-08-20T04:37:19;17.30;99.90
1015;DHT22;8170;48.118;11.628;2022-08-20T04:38:22;17.20;99.90
1015;DHT22;8170;48.118;11.628;2022-08-20T04:39:25;17.20;99.90
1015;DHT22;8170;48.118;11.628;2022-08-20T04:40:28;17.20;99.90
1015;DHT22;8170;48.118;11.628;2022-08-20T04:41:49;17.20;99.90
1015;DHT22;8170;48.118;11.628;2022-08-20T04:42:52;17.20;99.90
1015;DHT22;8170;48.118;11.628;2022-08-20T04:43:56;17.20;99.90
1015;DHT22;8170;48.118;11.628;2022-08-20T04:44:59;17.20;99.90
1015;DHT22;8170;48.118;11.628;2022-08-20T04:46:03;17.20;99.90
1015;DHT22;8170;48.118;11.628;2022-08-20T04:47:07;17.20;99.90
1015;DHT22;8170;48.118;11.628;2022-08-20T04:48:10;17.20;99.90
1015;DHT22;8170;48.118;11.628;2022-08-20T04:49:17;17.20;99.90
1015;DHT22;8170;48.118;11.628;2022-08-20T04:50:27;17.20;99.90
1015;DHT22;8170;48.118;11.628;2022-08-20T04:51:30;17.20;99.90
1015;DHT22;8170;48.118;11.628;2022-08-20T04:52:34;17.20;99.90
1015;DHT22;8170;48.118;11.628;2022-08-20T04:53:38;17.20;99.90
1015;DHT22;8170;48.118;11.628;2022-08-20T04:54:41;17.20;99.90
1015;DHT22;8170;48.118;11.628;2022-08-20T04:55:45;17.20;99.90
1015;DHT22;8170;48.118;11.628;2022-08-20T04:56:49;17.20;99.90
1015;DHT22;8170;48.118;11.628;2022-08-20T04:57:52;17.20;99.90
1015;DHT22;8170;48.118;11.628;2022-08-20T04:58:59;17.20;99.90
1015;DHT22;8170;48.118;11.628;2022-08-20T05:00:04;17.10;99.90
1015;DHT22;8170;48.118;11.628;2022-08-20T05:01:09;17.20;99.90
1015;DHT22;8170;48.118;11.628;2022-08-20T05:02:12;17.10;99.90
1015;DHT22;8170;48.118;11.628;2022-08-20T05:03:18;17.10;99.90
1015;DHT22;8170;48.118;11.628;2022-08-20T05:04:22;17.20;99.90
1015;DHT22;8170;48.118;11.628;2022-08-20T05:05:28;17.10;99.90
1015;DHT22;8170;48.118;11.628;2022-08-20T05:06:32;17.10;99.90
1015;DHT22;8170;48.118;11.628;2022-08-20T05:07:37;17.10;99.90
1015;DHT22;8170;48.118;11.628;2022-08-20T05:08:41;17.10;99.90
1015;DHT22;8170;48.118;11.628;2022-08-20T05:09:44;17.10;99.90
1015;DHT22;8170;48.118;11.628;2022-08-20T05:10:47;17.10;99.90
1015;DHT22;8170;48.118;11.628;2022-08-20T05:12:08;17.10;99.90
1015;DHT22;8170;48.118;11.628;2022-08-20T05:13:11;17.20;99.90
1015;DHT22;8170;48.118;11.628;2022-08-20T05:14:13;17.10;99.90
1015;DHT22;8170;48.118;11.628;2022-08-20T05:15:17;17.20;99.90
1015;DHT22;8170;48.118;11.628;2022-08-20T05:16:19;17.10;99.90
1015;DHT22;8170;48.118;11.628;2022-08-20T05:17:22;17.10;99.90
1015;DHT22;8170;48.118;11.628;2022-08-20T05:18:24;17.10;99.90
1015;DHT22;8170;48.118;11.628;2022-08-20T05:19:29;17.10;99.90
1015;DHT22;8170;48.118;11.628;2022-08-20T05:20:40;17.10;99.90
1015;DHT22;8170;48.118;11.628;2022-08-20T05:21:43;17.10;99.90
1015;DHT22;8170;48.118;11.628;2022-08-20T05:22:45;17.10;99.90
1015;DHT22;8170;48.118;11.628;2022-08-20T05:23:48;17.10;99.90
1015;DHT22;8170;48.118;11.628;2022-08-20T05:24:51;17.20;99.90
1015;DHT22;8170;48.118;11.628;2022-08-20T05:25:56;17.20;99.90
1015;DHT22;8170;48.118;11.628;2022-08-20T05:26:59;17.20;99.90
1015;DHT22;8170;48.118;11.628;2022-08-20T05:28:04;17.20;99.90
1015;DHT22;8170;48.118;11.628;2022-08-20T05:29:10;17.20;99.90
1015;DHT22;8170;48.118;11.628;2022-08-20T05:30:14;17.20;99.90
1015;DHT22;8170;48.118;11.628;2022-08-20T05:31:16;17.20;99.90
1015;DHT22;8170;48.118;11.628;2022-08-20T05:32:21;17.20;99.90
1015;DHT22;8170;48.118;11.628;2022-08-20T05:33:23;17.20;99.90
1015;DHT22;8170;48.118;11.628;2022-08-20T05:34:26;17.20;99.90
1015;DHT22;8170;48.118;11.628;2022-08-20T05:35:30;17.20;99.90
1015;DHT22;8170;48.118;11.628;2022-08-20T05:36:35;17.20;99.90
1015;DHT22;8170;48.118;11.628;2022-08-20T05:37:38;17.20;99.90
1015;DHT22;8170;48.118;11.628;2022-08-20T05:38:42;17.20;99.90
1015;DHT22;8170;48.118;11.628;2022-08-20T05:39:50;17.20;99.90
1015;DHT22;8170;48.118;11.628;2022-08-20T05:40:53;17.30;99.90
1015;DHT22;8170;48.118;11.628;2022-08-20T05:41:55;17.20;99.90
1015;DHT22;8170;48.118;11.628;2022-08-20T05:42:58;17.30;99.90
1015;DHT22;8170;48.118;11.628;2022-08-20T05:44:00;17.30;99.90
1015;DHT22;8170;48.118;11.628;2022-08-20T05:45:05;17.20;99.90
1015;DHT22;8170;48.118;11.628;2022-08-20T05:46:12;17.20;99.90
1015;DHT22;8170;48.118;11.628;2022-08-20T05:47:17;17.30;99.90
1015;DHT22;8170;48.118;11.628;2022-08-20T05:48:23;17.30;99.90
1015;DHT22;8170;48.118;11.628;2022-08-20T05:49:27;17.30;99.90
1015;DHT22;8170;48.118;11.628;2022-08-20T05:50:30;17.30;99.90
1015;DHT22;8170;48.118;11.628;2022-08-20T05:51:33;17.30;99.90
1015;DHT22;8170;48.118;11.628;2022-08-20T05:52:38;17.30;99.90
1015;DHT22;8170;48.118;11.628;2022-08-20T05:53:40;17.30;99.90
1015;DHT22;8170;48.118;11.628;2022-08-20T05:54:44;17.40;99.90
1015;DHT22;8170;48.118;11.628;2022-08-20T05:55:46;17.40;99.90
1015;DHT22;8170;48.118;11.628;2022-08-20T05:56:50;17.40;99.90
1015;DHT22;8170;48.118;11.628;2022-08-20T05:57:56;17.50;99.90
1015;DHT22;8170;48.118;11.628;2022-08-20T05:59:00;17.50;99.90
1015;DHT22;8170;48.118;11.628;2022-08-20T06:00:08;17.60;99.90
1015;DHT22;8170;48.118;11.628;2022-08-20T06:01:15;17.60;99.90
1015;DHT22;8170;48.118;11.628;2022-08-20T06:02:17;17.70;99.90
1015;DHT22;8170;48.118;11.628;2022-08-20T06:03:38;17.60;99.90
1015;DHT22;8170;48.118;11.628;2022-08-20T06:04:59;17.60;99.90
1015;DHT22;8170;48.118;11.628;2022-08-20T06:06:04;17.60;99.90
1015;DHT22;8170;48.118;11.628;2022-08-20T06:07:19;17.70;99.90
1015;DHT22;8170;48.118;11.628;2022-08-20T06:08:22;17.70;99.90
1015;DHT22;8170;48.118;11.628;2022-08-20T06:09:25;17.70;99.90
1015;DHT22;8170;48.118;11.628;2022-08-20T06:10:33;17.70;99.90
1015;DHT22;8170;48.118;11.628;2022-08-20T06:11:36;17.70;99.90
1015;DHT22;8170;48.118;11.628;2022-08-20T06:12:39;17.70;99.90
1015;DHT22;8170;48.118;11.628;2022-08-20T06:13:41;17.70;99.90
1015;DHT22;8170;48.118;11.628;2022-08-20T06:14:44;17.80;99.90
1015;DHT22;8170;48.118;11.628;2022-08-20T06:15:48;17.80;99.90
1015;DHT22;8170;48.118;11.628;2022-08-20T06:16:52;17.80;99.90
1015;DHT22;8170;48.118;11.628;2022-08-20T06:17:59;17.90;99.90
1015;DHT22;8170;48.118;11.628;2022-08-20T06:19:05;17.90;99.90
1015;DHT22;8170;48.118;11.628;2022-08-20T06:20:12;17.80;99.90
1015;DHT22;8170;48.118;11.628;2022-08-20T06:21:18;17.90;99.90
1015;DHT22;8170;48.118;11.628;2022-08-20T06:22:20;17.90;99.90
1015;DHT22;8170;48.118;11.628;2022-08-20T06:23:28;18.00;99.90
1015;DHT22;8170;48.118;11.628;2022-08-20T06:24:50;18.00;99.90
1015;DHT22;8170;48.118;11.628;2022-08-20T06:25:53;17.90;99.90
1015;DHT22;8170;48.118;11.628;2022-08-20T06:26:56;18.00;99.90
1015;DHT22;8170;48.118;11.628;2022-08-20T06:28:00;18.00;99.90
1015;DHT22;8170;48.118;11.628;2022-08-20T06:29:04;18.00;99.90
1015;DHT22;8170;48.118;11.628;2022-08-20T06:30:09;18.10;99.90
1015;DHT22;8170;48.118;11.628;2022-08-20T06:31:13;18.10;99.90
1015;DHT22;8170;48.118;11.628;2022-08-20T06:32:15;18.20;99.90
1015;DHT22;8170;48.118;11.628;2022-08-20T06:33:29;18.20;99.90
1015;DHT22;8170;48.118;11.628;2022-08-20T06:34:31;18.30;99.90
1015;DHT22;8170;48.118;11.628;2022-08-20T06:35:34;18.30;99.90
1015;DHT22;8170;48.118;11.628;2022-08-20T06:36:39;18.30;99.90
1015;DHT22;8170;48.118;11.628;2022-08-20T06:37:42;18.40;99.90
1015;DHT22;8170;48.118;11.628;2022-08-20T06:38:45;18.40;99.90
1015;DHT22;8170;48.118;11.628;2022-08-20T06:39:49;18.40;99.90
1015;DHT22;8170;48.118;11.628;2022-08-20T06:40:54;18.40;99.90
1015;DHT22;8170;48.118;11.628;2022-08-20T06:41:56;18.40;99.90
1015;DHT22;8170;48.118;11.628;2022-08-20T06:43:01;18.40;99.90
1015;DHT22;8170;48.118;11.628;2022-08-20T06:44:04;18.40;99.90
1015;DHT22;8170;48.118;11.628;2022-08-20T06:45:09;18.40;99.90
1015;DHT22;8170;48.118;11.628;2022-08-20T06:46:11;18.40;99.90
1015;DHT22;8170;48.118;11.628;2022-08-20T06:47:16;18.40;99.90
1015;DHT22;8170;48.118;11.628;2022-08-20T06:48:18;18.40;99.90
1015;DHT22;8170;48.118;11.628;2022-08-20T06:49:21;18.40;99.90
1015;DHT22;8170;48.118;11.628;2022-08-20T06:50:26;18.40;99.90
1015;DHT22;8170;48.118;11.628;2022-08-20T06:51:30;18.50;99.90
1015;DHT22;8170;48.118;11.628;2022-08-20T06:52:33;18.60;99.90
1015;DHT22;8170;48.118;11.628;2022-08-20T06:53:54;18.50;99.90
1015;DHT22;8170;48.118;11.628;2022-08-20T06:54:57;18.50;99.90
1015;DHT22;8170;48.118;11.628;2022-08-20T06:55:59;18.50;99.90
1015;DHT22;8170;48.118;11.628;2022-08-20T06:57:03;18.60;99.90
1015;DHT22;8170;48.118;11.628;2022-08-20T06:58:07;18.60;99.90
1015;DHT22;8170;48.118;11.628;2022-08-20T06:59:30;18.60;99.90
1015;DHT22;8170;48.118;11.628;2022-08-20T07:00:34;18.60;99.90